Time;durP1;ratioP1;P1;durP2;ratioP2;P2;SDS_P1;SDS_P2;PMS_P1;PMS_P2;Temp;Humidity;BMP_temperature;BMP_pressure;BME280_temperature;BME280_humidity;BME280_pressure;Samples;Min_cycle;Max_cycle;Signal;HPM_P1;HPM_P2
2022/06/20 00:01:18;;;;;;;0.30;0.30;;;;;;;23.33;nan;95185.47;4951658;28;20255;-65
2022/06/20 00:03:48;;;;;;;0.30;0.30;;;;;;;23.51;nan;95185.00;4952073;28;20485;-61
2022/06/20 00:06:19;;;;;;;0.33;0.33;;;;;;;23.53;nan;95176.63;4938906;29;21129;-65
2022/06/20 00:08:51;;;;;;;0.20;0.20;;;;;;;23.68;nan;95176.81;4951837;29;20234;-64
2022/06/20 00:11:35;;;;;;;0.20;0.20;;;;;;;23.84;nan;95172.38;4945279;28;20196;-62
2022/06/20 00:14:03;;;;;;;0.20;0.20;;;;;;;23.81;nan;95177.63;4969952;28;20206;-62
2022/06/20 00:16:33;;;;;;;0.97;0.30;;;;;;;23.96;nan;95168.91;4958684;28;20195;-61
2022/06/20 00:19:01;;;;;;;0.30;0.30;;;;;;;24.01;nan;95171.44;4956978;28;20211;-61
2022/06/20 00:21:29;;;;;;;0.20;0.20;;;;;;;23.79;nan;95174.47;4951542;28;20188;-62
2022/06/20 00:23:55;;;;;;;0.60;0.60;;;;;;;23.88;nan;95178.63;4950214;29;20266;-60
2022/06/20 00:26:22;;;;;;;0.30;0.30;;;;;;;23.78;nan;95173.69;4964796;28;20353;-61
2022/06/20 00:28:49;;;;;;;0.20;0.20;;;;;;;23.54;nan;95173.63;4951543;28;20218;-60
2022/06/20 00:31:17;;;;;;;0.23;0.23;;;;;;;23.46;nan;95165.69;4964844;28;20196;-63
2022/06/20 00:33:44;;;;;;;0.50;0.50;;;;;;;23.37;nan;95173.00;4960207;28;20677;-64
2022/06/20 00:36:12;;;;;;;0.27;0.27;;;;;;;23.49;nan;95167.69;4955573;28;20203;-62
2022/06/20 00:38:41;;;;;;;0.47;0.47;;;;;;;23.38;nan;95172.69;4951420;28;20203;-63
2022/06/20 00:41:15;;;;;;;0.50;0.50;;;;;;;23.29;nan;95179.19;4951149;28;20199;-61
2022/06/20 00:43:48;;;;;;;0.83;0.57;;;;;;;22.94;nan;95176.78;4951786;28;20264;-62
2022/06/20 00:46:37;;;;;;;0.67;0.50;;;;;;;23.11;nan;95175.88;4951559;28;20203;-62
2022/06/20 00:49:22;;;;;;;0.50;0.50;;;;;;;23.12;nan;95172.09;4964510;28;20227;-60
2022/06/20 00:51:56;;;;;;;1.03;0.70;;;;;;;23.14;nan;95176.00;4951019;28;20729;-61
2022/06/20 00:54:32;;;;;;;0.50;0.47;;;;;;;23.23;nan;95177.84;4938644;28;20686;-61
2022/06/20 00:57:10;;;;;;;0.60;0.37;;;;;;;22.89;nan;95173.53;4951088;28;20479;-61
2022/06/20 00:59:42;;;;;;;0.60;0.60;;;;;;;22.74;nan;95172.22;4951118;28;20187;-63
2022/06/20 01:05:01;;;;;;;1.33;1.10;;;;;;;22.70;nan;95176.63;4961097;28;20243;-61
2022/06/20 01:07:43;;;;;;;0.30;0.30;;;;;;;22.71;nan;95162.19;4951037;28;20223;-64
2022/06/20 01:10:14;;;;;;;0.10;0.10;;;;;;;22.47;nan;95167.34;4954679;28;20207;-63
2022/06/20 01:12:49;;;;;;;0.30;0.30;;;;;;;22.25;nan;95164.94;4955168;28;20435;-64
2022/06/20 01:15:22;;;;;;;0.20;0.20;;;;;;;21.08;nan;95153.94;4955056;28;20439;-62
2022/06/20 01:17:50;;;;;;;0.50;0.30;;;;;;;21.17;nan;95156.59;4954242;28;20950;-62
2022/06/20 01:20:22;;;;;;;0.10;0.10;;;;;;;21.01;nan;95158.97;4954652;28;20455;-60
2022/06/20 01:23:12;;;;;;;0.50;0.50;;;;;;;21.33;nan;95138.25;4954386;28;20957;-62
2022/06/20 01:25:52;;;;;;;0.20;0.20;;;;;;;21.75;nan;95156.78;4954575;28;20447;-61
2022/06/20 01:28:22;;;;;;;0.50;0.50;;;;;;;21.91;nan;95149.09;4941773;29;20485;-60
2022/06/20 01:30:49;;;;;;;0.20;0.20;;;;;;;22.22;nan;95160.25;4954467;28;20537;-61
2022/06/20 01:33:20;;;;;;;0.13;0.13;;;;;;;22.41;nan;95160.59;4954126;28;20453;-63
2022/06/20 01:38:35;;;;;;;0.33;0.33;;;;;;;22.01;nan;95162.06;4944426;29;20439;-61
2022/06/20 01:43:48;;;;;;;0.20;0.20;;;;;;;22.06;nan;95161.91;4943231;28;20448;-60
2022/06/20 01:46:16;;;;;;;0.27;0.27;;;;;;;22.16;nan;95161.53;4963596;28;20450;-61
2022/06/20 01:48:49;;;;;;;0.30;0.20;;;;;;;22.27;nan;95157.41;4957734;28;20479;-61
2022/06/20 01:51:21;;;;;;;0.57;0.57;;;;;;;22.38;nan;95158.59;4953915;28;20451;-62
2022/06/20 01:53:50;;;;;;;0.47;0.47;;;;;;;22.20;nan;95167.78;4966009;28;20528;-61
2022/06/20 01:56:20;;;;;;;0.20;0.20;;;;;;;22.42;nan;95164.84;4942681;28;20470;-61
2022/06/20 01:59:01;;;;;;;0.40;0.40;;;;;;;22.49;nan;95165.13;4952572;28;20926;-63
2022/06/20 02:01:33;;;;;;;0.40;0.40;;;;;;;22.42;nan;95166.75;4954339;28;20529;-62
2022/06/20 02:04:01;;;;;;;0.43;0.40;;;;;;;22.37;nan;95167.69;4953836;28;20483;-60
2022/06/20 02:06:29;;;;;;;0.77;0.77;;;;;;;22.33;nan;95166.00;4953769;28;21024;-61
2022/06/20 02:08:58;;;;;;;0.40;0.40;;;;;;;22.32;nan;95159.88;4953714;28;20910;-62
2022/06/20 02:11:32;;;;;;;0.63;0.63;;;;;;;22.21;nan;95164.00;4961322;28;20445;-62
2022/06/20 02:14:05;;;;;;;0.60;0.60;;;;;;;21.99;nan;95161.59;4958887;28;20451;-61
2022/06/20 02:16:35;;;;;;;0.47;0.40;;;;;;;22.08;nan;95154.31;4953861;29;20447;-61
2022/06/20 02:19:05;;;;;;;0.40;0.40;;;;;;;21.91;nan;95154.41;4953242;28;20443;-60
2022/06/20 02:21:35;;;;;;;0.97;0.67;;;;;;;22.09;nan;95155.91;4953202;28;20440;-61
2022/06/20 02:24:08;;;;;;;1.30;0.40;;;;;;;22.30;nan;95150.63;4940693;28;20479;-63
2022/06/20 02:26:38;;;;;;;0.23;0.23;;;;;;;22.18;nan;95153.97;4940833;28;21266;-63
2022/06/20 02:29:24;;;;;;;0.47;0.47;;;;;;;22.23;nan;95155.66;4953963;28;20483;-61
2022/06/20 02:31:54;;;;;;;0.60;0.60;;;;;;;22.23;nan;95161.81;4941960;29;20493;-61
2022/06/20 02:34:24;;;;;;;0.40;0.40;;;;;;;21.87;nan;95154.28;4953381;28;20470;-62
2022/06/20 02:36:52;;;;;;;0.40;0.40;;;;;;;22.59;nan;95154.09;4953234;28;20451;-62
2022/06/20 02:39:20;;;;;;;0.40;0.40;;;;;;;22.11;nan;95154.50;4953367;28;21000;-64
2022/06/20 02:41:53;;;;;;;0.60;0.60;;;;;;;21.86;nan;95157.28;4953156;28;20509;-63
2022/06/20 02:44:21;;;;;;;1.13;1.10;;;;;;;21.68;nan;95153.03;4965559;28;20450;-63
2022/06/20 02:46:51;;;;;;;0.60;0.60;;;;;;;21.53;nan;95156.22;4954097;28;20840;-63
2022/06/20 02:49:23;;;;;;;2.10;1.53;;;;;;;21.59;nan;95147.72;4959504;28;20888;-61
2022/06/20 02:51:53;;;;;;;0.70;0.70;;;;;;;21.61;nan;95145.53;4972703;28;20450;-63
2022/06/20 02:54:25;;;;;;;2.63;1.80;;;;;;;21.34;nan;95145.13;4966485;28;20876;-62
2022/06/20 02:57:02;;;;;;;1.60;1.10;;;;;;;21.49;nan;95131.28;4952795;28;20443;-61
2022/06/20 02:59:39;;;;;;;1.37;0.47;;;;;;;21.61;nan;95145.53;4940159;28;20857;-61
2022/06/20 03:02:09;;;;;;;1.53;0.83;;;;;;;21.41;nan;95150.75;4966332;28;20539;-62
2022/06/20 03:04:41;;;;;;;0.60;0.50;;;;;;;21.47;nan;95139.63;4952845;28;20487;-60
2022/06/20 03:07:18;;;;;;;0.50;0.50;;;;;;;21.43;nan;95145.88;4953430;28;20825;-62
2022/06/20 03:09:50;;;;;;;2.30;0.90;;;;;;;21.46;nan;95151.38;4963563;28;20475;-62
2022/06/20 03:12:17;;;;;;;0.67;0.53;;;;;;;21.61;nan;95150.06;4952631;28;20439;-61
2022/06/20 03:14:51;;;;;;;0.83;0.83;;;;;;;21.52;nan;95152.78;4952923;28;20446;-61
2022/06/20 03:17:21;;;;;;;0.97;0.80;;;;;;;21.44;nan;95144.81;4952597;28;20466;-61
2022/06/20 03:19:53;;;;;;;0.87;0.50;;;;;;;21.49;nan;95141.97;4959009;28;20447;-62
2022/06/20 03:22:23;;;;;;;0.40;0.40;;;;;;;21.47;nan;95141.50;4958898;28;20451;-62
2022/06/20 03:24:51;;;;;;;4.00;1.20;;;;;;;21.60;nan;95135.19;4952589;28;20976;-62
2022/06/20 03:27:23;;;;;;;0.30;0.30;;;;;;;21.71;nan;95137.22;4952536;28;20929;-61
2022/06/20 03:29:56;;;;;;;0.80;0.80;;;;;;;21.63;nan;95151.34;4965823;28;21025;-60
2022/06/20 03:32:24;;;;;;;0.20;0.20;;;;;;;21.71;nan;95149.75;4951678;28;20530;-62
2022/06/20 03:34:53;;;;;;;0.30;0.30;;;;;;;21.65;nan;95140.34;4948097;28;20455;-61
2022/06/20 03:37:21;;;;;;;0.37;0.37;;;;;;;21.61;nan;95142.06;4943650;28;20513;-60
2022/06/20 03:39:50;;;;;;;0.57;0.57;;;;;;;20.71;nan;95143.88;4951969;28;20833;-62
2022/06/20 03:42:17;;;;;;;0.20;0.20;;;;;;;20.71;nan;95146.53;4942932;28;20496;-61
2022/06/20 03:44:51;;;;;;;0.20;0.20;;;;;;;21.02;nan;95149.84;4948388;28;20958;-61
2022/06/20 03:47:29;;;;;;;0.83;0.37;;;;;;;21.39;nan;95152.94;4960760;28;20447;-62
2022/06/20 03:50:05;;;;;;;0.27;0.27;;;;;;;21.63;nan;95147.88;4957919;28;21051;-62
2022/06/20 03:52:42;;;;;;;0.30;0.30;;;;;;;21.79;nan;95151.63;4938645;28;20450;-61
2022/06/20 03:55:33;;;;;;;0.40;0.40;;;;;;;21.45;nan;95151.69;4951991;28;20545;-62
2022/06/20 03:58:38;;;;;;;0.10;0.10;;;;;;;21.15;nan;95170.22;4950013;28;20470;-61
2022/06/20 04:01:11;;;;;;;0.67;0.47;;;;;;;21.39;nan;95164.41;4940021;28;20459;-62
2022/06/20 04:04:02;;;;;;;0.30;0.20;;;;;;;21.13;nan;95161.75;4953235;28;21026;-61
2022/06/20 04:06:44;;;;;;;0.60;0.60;;;;;;;20.80;nan;95163.28;4955544;28;20479;-61
2022/06/20 04:12:38;;;;;;;0.30;0.23;;;;;;;20.94;nan;95158.63;4951185;28;20458;-62
2022/06/20 04:15:19;;;;;;;0.30;0.30;;;;;;;21.06;nan;95161.47;4950643;28;20443;-61
2022/06/20 04:20:52;;;;;;;0.70;0.50;;;;;;;19.83;nan;95155.69;4950775;28;20431;-61
2022/06/20 04:23:28;;;;;;;1.57;1.47;;;;;;;20.21;nan;95161.31;4950757;29;20452;-64
2022/06/20 04:26:05;;;;;;;0.20;0.20;;;;;;;20.48;nan;95149.63;4950299;28;20451;-61
2022/06/20 04:28:42;;;;;;;0.60;0.47;;;;;;;21.23;nan;95143.88;4958637;28;20476;-60
2022/06/20 04:31:22;;;;;;;0.30;0.30;;;;;;;21.67;nan;95143.47;4954218;28;20572;-65
2022/06/20 04:34:27;;;;;;;0.70;0.50;;;;;;;21.58;nan;95146.19;4950642;28;20456;-65
2022/06/20 04:37:03;;;;;;;0.50;0.50;;;;;;;21.63;nan;95147.88;4950148;28;20450;-65
2022/06/20 04:39:39;;;;;;;0.20;0.20;;;;;;;22.24;nan;95150.03;4950582;28;20451;-63
2022/06/20 04:42:30;;;;;;;0.27;0.27;;;;;;;22.50;nan;95134.63;4943071;28;20447;-63
2022/06/20 04:45:02;;;;;;;0.70;0.50;;;;;;;22.54;nan;95138.22;4951404;28;20988;-66
2022/06/20 04:47:43;;;;;;;0.37;0.30;;;;;;;22.52;nan;95145.78;4940394;29;20447;-66
2022/06/20 04:50:19;;;;;;;0.23;0.23;;;;;;;22.31;nan;95136.97;4954151;28;20478;-66
2022/06/20 04:52:49;;;;;;;0.33;0.33;;;;;;;22.58;nan;95131.16;4949159;28;21294;-66
2022/06/20 04:55:22;;;;;;;7.07;3.40;;;;;;;22.96;nan;95131.81;4959385;28;20446;-67
2022/06/20 04:57:54;;;;;;;3.47;3.00;;;;;;;22.52;nan;95127.06;4942068;28;20443;-64
2022/06/20 05:00:25;;;;;;;6.00;3.77;;;;;;;22.88;nan;95119.28;4940219;29;20451;-67
2022/06/20 05:02:54;;;;;;;2.40;2.20;;;;;;;22.64;nan;95129.88;4941620;28;20448;-65
2022/06/20 05:05:30;;;;;;;0.83;0.83;;;;;;;21.25;nan;95131.03;4954081;28;21016;-63
2022/06/20 05:07:59;;;;;;;0.40;0.40;;;;;;;22.50;nan;95123.19;4954268;28;20443;-65
2022/06/20 05:10:50;;;;;;;1.10;1.07;;;;;;;22.68;nan;95124.66;4953639;28;20478;-74
2022/06/20 05:13:25;;;;;;;2.70;2.50;;;;;;;23.26;nan;95123.69;4934664;28;20215;-66
2022/06/20 05:15:53;;;;;;;2.97;2.30;;;;;;;23.33;nan;95121.28;4964099;28;20442;-74
2022/06/20 05:18:26;;;;;;;0.40;0.40;;;;;;;22.96;nan;95126.47;4953890;28;20200;-70
2022/06/20 05:20:58;;;;;;;0.87;0.87;;;;;;;23.35;nan;95133.22;4953485;29;20669;-67
2022/06/20 05:23:33;;;;;;;0.90;0.73;;;;;;;23.16;nan;95140.16;4953725;28;20458;-67
2022/06/20 05:26:02;;;;;;;2.10;1.30;;;;;;;23.01;nan;95134.28;4953618;28;20200;-66
2022/06/20 05:28:32;;;;;;;1.00;0.90;;;;;;;23.42;nan;95130.00;4953329;28;20687;-64
2022/06/20 05:31:01;;;;;;;0.73;0.73;;;;;;;23.40;nan;95130.34;4953428;28;20207;-68
2022/06/20 05:33:45;;;;;;;2.07;0.77;;;;;;;22.95;nan;95124.13;4961151;28;20339;-67
2022/06/20 05:36:23;;;;;;;0.50;0.30;;;;;;;22.66;nan;95122.28;4957857;28;20692;-67
2022/06/20 05:39:25;;;;;;;0.90;0.70;;;;;;;22.77;nan;95123.47;4953692;28;20203;-66
2022/06/20 05:41:52;;;;;;;1.37;1.27;;;;;;;23.38;nan;95121.88;4953458;28;20199;-63
2022/06/20 05:44:19;;;;;;;0.70;0.60;;;;;;;23.36;nan;95118.75;4953512;28;20210;-67
2022/06/20 05:46:53;;;;;;;0.43;0.43;;;;;;;23.87;nan;95114.72;4967164;28;20203;-64
2022/06/20 05:49:28;;;;;;;0.70;0.70;;;;;;;22.89;nan;95126.22;4953033;28;20225;-71
2022/06/20 05:51:58;;;;;;;1.80;0.67;;;;;;;23.71;nan;95127.19;4953316;28;20577;-68
2022/06/20 05:54:31;;;;;;;0.50;0.50;;;;;;;23.10;nan;95124.28;4964921;28;20439;-67
2022/06/20 05:57:05;;;;;;;0.40;0.40;;;;;;;23.70;nan;95122.97;4966900;28;20230;-63
2022/06/20 05:59:59;;;;;;;0.97;0.80;;;;;;;24.19;nan;95118.44;4953184;28;20199;-66
2022/06/20 06:02:31;;;;;;;0.40;0.40;;;;;;;24.50;nan;95124.78;4953317;28;20319;-65
2022/06/20 06:05:02;;;;;;;0.33;0.33;;;;;;;24.77;nan;95118.72;4953149;28;20247;-66
2022/06/20 06:07:44;;;;;;;0.93;0.50;;;;;;;24.02;nan;95114.09;4966053;28;20700;-65
2022/06/20 06:10:25;;;;;;;0.40;0.40;;;;;;;23.99;nan;95122.75;4952856;28;20306;-66
2022/06/20 06:13:01;;;;;;;0.47;0.40;;;;;;;24.49;nan;95115.16;4952838;28;20211;-67
2022/06/20 06:19:41;;;;;;;0.40;0.40;;;;;;;24.47;nan;95101.31;4944136;29;20200;-67
2022/06/20 06:22:33;;;;;;;0.70;0.60;;;;;;;25.03;nan;95100.34;4952989;28;20196;-66
2022/06/20 06:25:05;;;;;;;0.40;0.40;;;;;;;25.01;nan;95107.94;4948499;28;20199;-68
2022/06/20 06:27:34;;;;;;;0.50;0.30;;;;;;;;;;4958527;28;20655;-64
2022/06/20 06:30:12;;;;;;;0.73;0.50;;;;;;;24.83;nan;95105.88;4953068;28;20615;-66
2022/06/20 06:33:20;;;;;;;0.30;0.30;;;;;;;25.00;nan;95101.00;4966062;28;20654;-66
2022/06/20 06:35:57;;;;;;;0.30;0.30;;;;;;;25.31;nan;95094.94;4952293;28;20203;-67
2022/06/20 06:39:05;;;;;;;0.70;0.70;;;;;;;25.66;nan;95089.75;4952692;28;20551;-64
2022/06/20 06:41:38;;;;;;;0.77;0.77;;;;;;;24.94;nan;95088.94;4924904;28;20210;-66
2022/06/20 06:44:17;;;;;;;0.30;0.30;;;;;;;25.23;nan;95076.31;4952603;29;20230;-64
2022/06/20 06:46:48;;;;;;;0.87;0.87;;;;;;;25.65;nan;95077.47;4965469;28;20649;-67
2022/06/20 06:49:42;;;;;;;2.33;0.40;;;;;;;25.70;nan;95072.63;4939381;28;20672;-67
2022/06/20 06:52:15;;;;;;;0.63;0.63;;;;;;;25.82;nan;95071.75;4952364;28;20716;-68
2022/06/20 06:54:41;;;;;;;1.00;1.00;;;;;;;25.53;nan;95064.13;4952069;28;20679;-65
2022/06/20 06:57:11;;;;;;;0.53;0.53;;;;;;;25.57;nan;95067.66;4966316;28;20236;-65
2022/06/20 06:59:48;;;;;;;1.17;0.97;;;;;;;25.93;nan;95059.34;4971713;28;20203;-65
2022/06/20 07:02:23;;;;;;;3.70;1.57;;;;;;;25.95;nan;95054.41;4955931;28;20203;-69
2022/06/20 07:05:26;;;;;;;1.83;1.10;;;;;;;25.86;nan;95043.06;4951741;28;20236;-67
2022/06/20 07:08:16;;;;;;;0.63;0.53;;;;;;;26.42;nan;95025.56;4951941;28;20390;-69
2022/06/20 07:11:04;;;;;;;0.60;0.57;;;;;;;25.62;nan;95040.59;4953116;28;20232;-65
2022/06/20 07:13:52;;;;;;;0.80;0.80;;;;;;;26.46;nan;95034.47;4961100;28;20201;-71
2022/06/20 07:16:51;;;;;;;1.27;1.03;;;;;;;26.06;nan;95038.59;4932712;28;20192;-67
2022/06/20 07:19:19;;;;;;;0.93;0.90;;;;;;;26.31;nan;95035.31;4918454;29;20216;-67
2022/06/20 07:21:46;;;;;;;1.17;0.90;;;;;;;26.65;nan;95029.13;4951848;28;20206;-68
2022/06/20 07:24:22;;;;;;;1.27;0.70;;;;;;;26.53;nan;95033.88;4965285;28;20203;-68
2022/06/20 07:26:52;;;;;;;0.60;0.60;;;;;;;26.90;nan;95022.34;4951825;28;20196;-60
2022/06/20 07:29:24;;;;;;;0.80;0.80;;;;;;;27.10;nan;95025.03;4951507;28;20216;-70
2022/06/20 07:32:00;;;;;;;0.30;0.30;;;;;;;27.27;nan;95029.94;4951733;29;20196;-61
2022/06/20 07:34:35;;;;;;;1.40;1.03;;;;;;;27.43;nan;95025.25;4965200;28;20289;-70
2022/06/20 07:37:24;;;;;;;0.50;0.50;;;;;;;27.18;nan;95029.41;4951309;28;20286;-65
2022/06/20 07:40:03;;;;;;;0.40;0.30;;;;;;;27.04;nan;95030.69;4968392;28;20579;-67
2022/06/20 07:42:59;;;;;;;0.40;0.40;;;;;;;27.26;nan;95031.88;4959638;28;20195;-70
2022/06/20 07:45:36;;;;;;;0.50;0.40;;;;;;;27.33;nan;95031.25;4937510;28;20206;-68
2022/06/20 07:48:12;;;;;;;1.03;0.40;;;;;;;26.82;nan;95025.28;4956859;28;20266;-68
2022/06/20 07:50:45;;;;;;;0.50;0.50;;;;;;;27.32;nan;95029.69;4951390;28;20215;-70
2022/06/20 07:53:25;;;;;;;0.33;0.33;;;;;;;27.66;nan;95024.13;4951394;28;20575;-69
2022/06/20 07:55:59;;;;;;;0.40;0.40;;;;;;;26.64;nan;95032.94;4950536;28;20694;-68
2022/06/20 07:58:33;;;;;;;0.43;0.43;;;;;;;26.78;nan;95022.53;4951085;28;20239;-66
2022/06/20 08:01:06;;;;;;;0.30;0.30;;;;;;;27.13;nan;95021.63;4950797;28;20257;-64
2022/06/20 08:04:05;;;;;;;0.33;0.33;;;;;;;27.97;nan;95009.66;4951123;28;20263;-71
2022/06/20 08:06:54;;;;;;;0.40;0.40;;;;;;;28.10;nan;95015.59;4945878;28;20289;-70
2022/06/20 08:09:33;;;;;;;0.47;0.47;;;;;;;27.95;nan;95014.63;4952289;28;20207;-67
2022/06/20 08:12:13;;;;;;;0.60;0.53;;;;;;;28.04;nan;95006.28;4951952;28;20278;-72
2022/06/20 08:14:50;;;;;;;0.60;0.60;;;;;;;27.38;nan;95017.50;4951725;28;20203;-74
2022/06/20 08:17:17;;;;;;;0.40;0.40;;;;;;;27.81;nan;95004.38;4950315;28;20235;-67
2022/06/20 08:19:45;;;;;;;1.90;1.00;;;;;;;27.79;nan;95000.50;4937140;28;20206;-66
2022/06/20 08:22:22;;;;;;;0.33;0.33;;;;;;;28.46;nan;95007.66;4950481;28;20196;-67
2022/06/20 08:24:57;;;;;;;0.30;0.30;;;;;;;27.90;nan;95006.81;4956136;28;20203;-66
2022/06/20 08:27:32;;;;;;;0.40;0.40;;;;;;;27.75;nan;95005.03;4957378;28;20332;-69
2022/06/20 08:30:13;;;;;;;0.40;0.40;;;;;;;28.24;nan;95003.13;4937611;29;20223;-63
2022/06/20 08:32:48;;;;;;;0.87;0.83;;;;;;;28.57;nan;95003.19;4938671;28;20226;-66
2022/06/20 08:35:32;;;;;;;0.70;0.50;;;;;;;28.99;nan;94997.53;4952382;28;20594;-72
2022/06/20 08:38:16;;;;;;;0.40;0.40;;;;;;;28.72;nan;94996.81;4948254;28;20711;-69
2022/06/20 08:41:03;;;;;;;0.50;0.50;;;;;;;28.86;nan;94990.81;4951935;28;20205;-66
2022/06/20 08:43:50;;;;;;;0.27;0.27;;;;;;;28.53;nan;94997.00;4953963;28;20196;-67
2022/06/20 08:46:32;;;;;;;0.43;0.43;;;;;;;28.50;nan;94992.28;4960014;28;20794;-69
2022/06/20 08:49:02;;;;;;;0.67;0.40;;;;;;;29.03;nan;94981.38;4952009;28;20227;-69
2022/06/20 08:51:37;;;;;;;0.60;0.40;;;;;;;28.94;nan;94993.22;4950474;28;20277;-66
2022/06/20 08:54:19;;;;;;;0.70;0.70;;;;;;;29.08;nan;94984.50;4946463;28;20224;-70
2022/06/20 08:56:57;;;;;;;0.50;0.50;;;;;;;29.22;nan;94983.88;4943901;28;20214;-69
2022/06/20 08:59:47;;;;;;;0.50;0.50;;;;;;;29.63;nan;94977.34;4943277;28;20242;-63
2022/06/20 09:02:26;;;;;;;0.40;0.40;;;;;;;29.26;nan;94990.88;4953345;28;20615;-63
2022/06/20 09:05:25;;;;;;;0.50;0.40;;;;;;;28.79;nan;94988.84;4939820;29;20389;-70
2022/06/20 09:08:16;;;;;;;0.20;0.20;;;;;;;29.34;nan;94987.09;4937828;28;20204;-66
2022/06/20 09:10:55;;;;;;;0.20;0.20;;;;;;;29.10;nan;94970.66;4950567;28;20219;-69
2022/06/20 09:13:42;;;;;;;0.90;0.80;;;;;;;29.58;nan;94966.88;4950936;28;20262;-69
2022/06/20 09:16:36;;;;;;;0.40;0.40;;;;;;;29.87;nan;94971.38;4950930;28;20196;-68
2022/06/20 09:19:25;;;;;;;0.20;0.20;;;;;;;29.40;nan;94969.41;4950487;28;20235;-69
2022/06/20 09:22:13;;;;;;;0.50;0.47;;;;;;;29.75;nan;94968.94;4960090;28;20806;-72
2022/06/20 09:24:40;;;;;;;0.30;0.30;;;;;;;30.17;nan;94958.44;4952294;28;20224;-63
2022/06/20 09:27:22;;;;;;;0.40;0.40;;;;;;;29.83;nan;94948.97;4951110;29;20230;-70
2022/06/20 09:30:15;;;;;;;0.40;0.40;;;;;;;29.76;nan;94954.31;4952777;28;20231;-68
2022/06/20 09:32:53;;;;;;;1.27;0.73;;;;;;;29.90;nan;94954.41;4955990;28;20196;-70
2022/06/20 09:35:44;;;;;;;0.40;0.40;;;;;;;28.86;nan;94951.16;4956464;28;20262;-64
2022/06/20 09:38:32;;;;;;;0.20;0.20;;;;;;;29.16;nan;94953.00;4951414;28;20664;-66
2022/06/20 09:41:18;;;;;;;1.10;0.53;;;;;;;29.51;nan;94953.28;4948205;29;20203;-67
2022/06/20 09:44:30;;;;;;;0.40;0.40;;;;;;;30.16;nan;94945.28;4942942;28;20200;-66
2022/06/20 09:47:09;;;;;;;0.20;0.20;;;;;;;30.16;nan;94956.88;4967997;28;20234;-66
2022/06/20 09:49:57;;;;;;;0.40;0.40;;;;;;;29.81;nan;94948.56;4962145;28;20202;-69
2022/06/20 09:53:04;;;;;;;0.30;0.30;;;;;;;30.30;nan;94943.47;4950966;28;20213;-65
2022/06/20 09:55:31;;;;;;;0.50;0.50;;;;;;;30.25;nan;94951.91;4916083;28;20359;-69
2022/06/20 09:58:22;;;;;;;0.37;0.37;;;;;;;30.25;nan;94949.22;4964482;28;20206;-67
2022/06/20 10:01:28;;;;;;;0.30;0.30;;;;;;;30.58;nan;94951.69;4947338;28;20286;-67
2022/06/20 10:04:21;;;;;;;0.50;0.50;;;;;;;29.87;nan;94955.16;4952256;28;20228;-71
2022/06/20 10:07:39;;;;;;;0.37;0.37;;;;;;;30.76;nan;94941.72;4932296;28;20216;-69
2022/06/20 10:10:28;;;;;;;2.00;1.87;;;;;;;30.46;nan;94941.22;4924044;28;20219;-68
2022/06/20 10:13:07;;;;;;;36.67;18.57;;;;;;;30.85;nan;94930.56;4948696;28;20200;-66
2022/06/20 10:15:42;;;;;;;4.73;4.13;;;;;;;30.98;nan;94933.69;4953425;28;20196;-65
2022/06/20 10:18:46;;;;;;;1.70;0.90;;;;;;;31.00;nan;94929.44;4946355;29;20772;-67
2022/06/20 10:21:32;;;;;;;0.77;0.50;;;;;;;31.14;nan;94934.88;4951355;28;20714;-68
2022/06/20 10:24:08;;;;;;;0.63;0.20;;;;;;;30.74;nan;94933.22;4950595;28;20200;-65
2022/06/20 10:26:53;;;;;;;0.93;0.93;;;;;;;31.27;nan;94921.72;4944319;28;20281;-65
2022/06/20 10:29:33;;;;;;;0.60;0.47;;;;;;;31.70;nan;94928.72;4949094;28;20644;-65
2022/06/20 10:32:20;;;;;;;0.33;0.30;;;;;;;31.20;nan;94925.22;4951243;28;20313;-64
2022/06/20 10:35:10;;;;;;;0.50;0.50;;;;;;;31.51;nan;94915.56;4964243;28;20203;-64
2022/06/20 10:37:42;;;;;;;0.27;0.27;;;;;;;31.54;nan;94914.78;4951787;28;20261;-64
2022/06/20 10:40:20;;;;;;;0.87;0.50;;;;;;;31.59;nan;94911.69;4942795;28;20192;-64
2022/06/20 10:43:21;;;;;;;0.30;0.27;;;;;;;32.07;nan;94920.94;4951286;28;20210;-71
2022/06/20 10:45:57;;;;;;;0.20;0.20;;;;;;;31.97;nan;94905.47;4941044;28;20834;-66
2022/06/20 10:48:34;;;;;;;24.80;12.83;;;;;;;32.17;nan;94903.09;4951335;28;20246;-64
2022/06/20 10:51:09;;;;;;;4.63;3.77;;;;;;;32.49;nan;94895.63;4949908;28;20231;-69
2022/06/20 10:54:08;;;;;;;2.03;1.90;;;;;;;31.94;nan;94906.25;4951047;28;20195;-71
2022/06/20 10:56:48;;;;;;;0.50;0.50;;;;;;;31.59;nan;94896.22;4952037;28;20207;-66
2022/06/20 10:59:47;;;;;;;38.87;24.73;;;;;;;32.09;nan;94899.63;4950991;28;20348;-66
2022/06/20 11:02:33;;;;;;;5.27;3.27;;;;;;;32.38;nan;94882.09;4943248;28;20241;-66
2022/06/20 11:05:09;;;;;;;0.40;0.40;;;;;;;31.57;nan;94876.09;4941764;28;20379;-66
2022/06/20 11:08:09;;;;;;;0.60;0.60;;;;;;;32.25;nan;94878.28;4938987;28;20343;-63
2022/06/20 11:10:36;;;;;;;1.23;0.83;;;;;;;32.56;nan;94880.09;4949218;28;20216;-64
2022/06/20 11:13:08;;;;;;;0.70;0.70;;;;;;;31.49;nan;94880.75;4948870;28;20207;-67
2022/06/20 11:15:56;;;;;;;0.40;0.40;;;;;;;32.24;nan;94876.75;4944440;28;20459;-64
2022/06/20 11:18:40;;;;;;;0.40;0.40;;;;;;;31.83;nan;94868.31;4947941;28;20199;-68
2022/06/20 11:21:20;;;;;;;0.50;0.50;;;;;;;32.32;nan;94866.63;4961575;28;20194;-63
2022/06/20 11:24:08;;;;;;;0.30;0.30;;;;;;;31.87;nan;94873.72;4954608;28;20208;-66
2022/06/20 11:26:35;;;;;;;0.40;0.40;;;;;;;32.10;nan;94865.94;4939372;28;20219;-68
2022/06/20 11:29:30;;;;;;;0.30;0.30;;;;;;;33.02;nan;94866.28;4950326;28;20679;-63
2022/06/20 11:32:18;;;;;;;70.50;38.10;;;;;;;33.11;nan;94865.81;4948922;28;20224;-68
2022/06/20 11:35:17;;;;;;;7.07;5.67;;;;;;;33.05;nan;94865.47;4950869;28;20721;-67
2022/06/20 11:37:57;;;;;;;2.27;1.90;;;;;;;32.90;nan;94855.09;4949501;28;20207;-65
2022/06/20 11:40:47;;;;;;;0.70;0.70;;;;;;;33.05;nan;94851.91;4948534;28;20195;-62
2022/06/20 11:43:27;;;;;;;0.50;0.50;;;;;;;31.80;nan;94852.06;4943947;28;20503;-69
2022/06/20 11:46:51;;;;;;;0.20;0.20;;;;;;;32.53;nan;94842.94;4957631;28;20195;-67
2022/06/20 11:49:49;;;;;;;0.70;0.70;;;;;;;32.90;nan;94838.81;4886318;29;20208;-68
2022/06/20 11:52:19;;;;;;;0.43;0.40;;;;;;;32.90;nan;94836.09;4891884;29;20229;-67
2022/06/20 11:55:27;;;;;;;0.37;0.37;;;;;;;32.61;nan;94824.63;4931472;29;20208;-68
2022/06/20 11:58:13;;;;;;;0.40;0.40;;;;;;;32.75;nan;94833.50;4938730;28;20549;-69
2022/06/20 12:00:48;;;;;;;0.63;0.63;;;;;;;33.26;nan;94819.16;4950540;28;20204;-67
2022/06/20 12:03:20;;;;;;;0.43;0.43;;;;;;;33.45;nan;94823.28;4942128;29;20217;-64
2022/06/20 12:06:02;;;;;;;0.43;0.43;;;;;;;32.92;nan;94820.94;4960898;28;20731;-68
2022/06/20 12:08:36;;;;;;;1.27;1.23;;;;;;;33.50;nan;94809.25;4953323;28;20202;-66
2022/06/20 12:11:28;;;;;;;3.13;2.67;;;;;;;32.88;nan;94822.16;4955083;28;20258;-69
2022/06/20 12:14:28;;;;;;;0.37;0.37;;;;;;;33.31;nan;94807.06;4955471;28;20255;-66
2022/06/20 12:16:57;;;;;;;0.60;0.60;;;;;;;33.70;nan;94815.66;4947555;28;20195;-66
2022/06/20 12:25:35;;;;;;;0.50;0.50;;;;;;;33.55;nan;94796.00;4949477;28;20239;-64
2022/06/20 12:28:14;;;;;;;0.40;0.40;;;;;;;32.50;nan;94802.25;4969669;28;20201;-63
2022/06/20 12:30:41;;;;;;;0.47;0.47;;;;;;;32.92;nan;94790.31;4947014;28;20335;-66
2022/06/20 12:33:09;;;;;;;0.90;0.80;;;;;;;34.02;nan;94791.63;4948123;28;20204;-65
2022/06/20 12:35:51;;;;;;;1.70;0.97;;;;;;;33.28;nan;94791.59;4952815;28;20637;-69
2022/06/20 12:38:46;;;;;;;0.63;0.63;;;;;;;33.73;nan;94790.38;4955149;28;21302;-64
2022/06/20 12:41:18;;;;;;;0.50;0.50;;;;;;;34.30;nan;94796.72;4938304;28;20208;-63
2022/06/20 12:44:22;;;;;;;0.60;0.60;;;;;;;34.04;nan;94793.94;4948766;28;20658;-67
2022/06/20 12:47:01;;;;;;;3.77;1.10;;;;;;;34.59;nan;94791.66;4896097;28;20219;-63
2022/06/20 12:49:37;;;;;;;6.30;5.17;;;;;;;34.30;nan;94796.72;4950782;28;20200;-64
2022/06/20 12:52:27;;;;;;;0.77;0.77;;;;;;;33.45;nan;94793.41;4949529;28;20211;-66
2022/06/20 12:54:56;;;;;;;0.73;0.73;;;;;;;33.50;nan;94787.53;4948574;28;20203;-69
2022/06/20 12:57:52;;;;;;;0.47;0.47;;;;;;;33.95;nan;94782.75;4947648;28;20242;-70
2022/06/20 13:00:41;;;;;;;0.87;0.60;;;;;;;34.39;nan;94777.94;4947259;28;20919;-70
2022/06/20 13:03:16;;;;;;;0.30;0.30;;;;;;;33.56;nan;94777.75;4948212;28;20188;-69
2022/06/20 13:06:31;;;;;;;0.73;0.73;;;;;;;34.88;nan;94770.22;4955902;28;20647;-66
2022/06/20 13:09:07;;;;;;;0.80;0.77;;;;;;;34.72;nan;94768.94;4963252;28;20668;-65
2022/06/20 13:11:46;;;;;;;0.53;0.53;;;;;;;34.38;nan;94765.50;4958986;28;20313;-66